Estación Meteorológica Peña el Pijo (Robertgarden) [ 07/23/19 00:12:19 CEST ]

Fecha Hora Presion(HPa) Temp (°C) Humedad % Rocio (°C) Viento ( m/s) Direccion Lluvia 1Hora(mm) Lluvia 24H(mm) LLuvia Total(mm)
2019-May-04 01:01:42 1003.700 12.3 88 10.3       2.59 318.05
2019-May-04 02:01:55 1003.700 12.3 88 10.3       2.59 318.05
2019-May-04 03:01:41 1003.400 12.4 88 10.4       2.59 318.05
2019-May-04 04:04:13 1002.800 13.1 89 11.3       2.59 318.05
2019-May-04 05:01:49 1003.000 12.6 90 11.0       2.59 318.05
2019-May-04 06:01:56 1003.000 12.6 89 10.8       2.59 318.05
2019-May-04 07:01:51 1003.100 13.7 90 12.1       2.59 318.05
2019-May-04 08:02:01 1003.500 11.8 90 10.2       2.59 318.05
2019-May-04 09:01:46 1003.800 11.8 89 10.0       2.59 318.05
2019-May-04 10:02:12 1003.700 14.8 72 9.8       2.59 318.05
2019-May-04 11:01:42 1003.700 17.4 43 4.6       2.59 318.05
2019-May-04 12:02:01 1004.100 20.1 31 2.4 0.7 NNE   2.59 318.05
2019-May-04 13:01:47 1004.200 21.1 26 0.6 2.2 WNW   2.59 318.05
2019-May-04 14:02:04 1003.900 20.4 25 -0.5       2.59 318.05
2019-May-04 15:01:53 1003.600 21.3 26 0.8 1.5 N   2.59 318.05
2019-May-04 16:01:43 1003.900 22.6 26 1.9       2.59 318.05
2019-May-04 17:01:47 1003.800 21.8 26 1.2       2.59 318.05
2019-May-04 18:01:48 1003.900 21.9 27 1.3       0.51 318.05
2019-May-04 19:01:39 1004.100 19.9 26 -0.4 3.1 WNW     318.05
2019-May-04 20:01:40 1004.100 17.5 28 -1.3         318.05
2019-May-04 21:01:47 1004.500 15.4 37 0.7         318.05
2019-May-04 22:01:34 1005.000 12.6 49 2.3         318.05
2019-May-04 23:01:35 1005.600 11.5 58 3.5         318.05

Temperatura Máxima:22°    Temperatura Mínima:11°
Presión Máxima:1005.600 Hpa    Presión Mínima:1002.800 Hpa


Volver